地図

経路データ

SID SEASON NUMBER BASIN SUBBASIN NAME ISO_TIME NATURE LAT LON WMO_WIND WMO_PRES WMO_AGENCY TRACK_TYPE DIST2LAND LANDFALL IFLAG USA_AGENCY USA_ATCF_ID USA_LAT USA_LON USA_RECORD USA_STATUS USA_WIND USA_PRES USA_SSHS USA_R34_NE USA_R34_SE USA_R34_SW USA_R34_NW USA_R50_NE USA_R50_SE USA_R50_SW USA_R50_NW USA_R64_NE USA_R64_SE USA_R64_SW USA_R64_NW USA_POCI USA_ROCI USA_RMW USA_EYE TOKYO_LAT TOKYO_LON TOKYO_GRADE TOKYO_WIND TOKYO_PRES TOKYO_R50_DIR TOKYO_R50_LONG TOKYO_R50_SHORT TOKYO_R30_DIR TOKYO_R30_LONG TOKYO_R30_SHORT TOKYO_LAND CMA_LAT CMA_LON CMA_CAT CMA_WIND CMA_PRES HKO_LAT HKO_LON HKO_CAT HKO_WIND HKO_PRES NEWDELHI_LAT NEWDELHI_LON NEWDELHI_GRADE NEWDELHI_WIND NEWDELHI_PRES NEWDELHI_CI NEWDELHI_DP NEWDELHI_POCI REUNION_LAT REUNION_LON REUNION_TYPE REUNION_WIND REUNION_PRES REUNION_TNUM REUNION_CI REUNION_RMW REUNION_R34_NE REUNION_R34_SE REUNION_R34_SW REUNION_R34_NW REUNION_R50_NE REUNION_R50_SE REUNION_R50_SW REUNION_R50_NW REUNION_R64_NE REUNION_R64_SE REUNION_R64_SW REUNION_R64_NW BOM_LAT BOM_LON BOM_TYPE BOM_WIND BOM_PRES BOM_TNUM BOM_CI BOM_RMW BOM_R34_NE BOM_R34_SE BOM_R34_SW BOM_R34_NW BOM_R50_NE BOM_R50_SE BOM_R50_SW BOM_R50_NW BOM_R64_NE BOM_R64_SE BOM_R64_SW BOM_R64_NW BOM_ROCI BOM_POCI BOM_EYE BOM_POS_METHOD BOM_PRES_METHOD NADI_LAT NADI_LON NADI_CAT NADI_WIND NADI_PRES WELLINGTON_LAT WELLINGTON_LON WELLINGTON_WIND WELLINGTON_PRES DS824_LAT DS824_LON DS824_STAGE DS824_WIND DS824_PRES TD9636_LAT TD9636_LON TD9636_STAGE TD9636_WIND TD9636_PRES TD9635_LAT TD9635_LON TD9635_WIND TD9635_PRES TD9635_ROCI NEUMANN_LAT NEUMANN_LON NEUMANN_CLASS NEUMANN_WIND NEUMANN_PRES MLC_LAT MLC_LON MLC_CLASS MLC_WIND MLC_PRES USA_GUST BOM_GUST BOM_GUST_PER REUNION_GUST REUNION_GUST_PER USA_SEAHGT USA_SEARAD_NE USA_SEARAD_SE USA_SEARAD_SW USA_SEARAD_NW STORM_SPEED STORM_DIR
1912081S11082 1912 16 SI MM NOT_NAMED 1912-03-21 06:00:00 NR -10.8000 81.6000 main 1874 1874 __________O___ -1 -10.8000 81.6000 7 7 103
1912081S11082 1912 16 SI MM NOT_NAMED 1912-03-21 09:00:00 NR -10.8833 81.9685 main 1888 1888 __________P___ -1 -10.8833 81.9685 7 7 103
1912081S11082 1912 16 SI MM NOT_NAMED 1912-03-21 12:00:00 NR -10.9630 82.3297 main 1902 1902 __________P___ -1 -10.9630 82.3297 7 7 102
1912081S11082 1912 16 SI MM NOT_NAMED 1912-03-21 15:00:00 NR -11.0363 82.6761 main 1907 1907 __________P___ -1 -11.0363 82.6761 7 7 102
1912081S11082 1912 16 SI MM NOT_NAMED 1912-03-21 18:00:00 NR -11.1000 83.0000 main 1923 1923 __________O___ -1 -11.1000 83.0000 7 6 101
1912081S11082 1912 16 SI MM NOT_NAMED 1912-03-21 21:00:00 NR -11.1528 83.2983 main 1939 1939 __________P___ -1 -11.1528 83.2983 7 6 100
1912081S11082 1912 16 SI MM NOT_NAMED 1912-03-22 00:00:00 NR -11.1996 83.5852 main 1944 1944 __________P___ -1 -11.1996 83.5852 7 6 99
1912081S11082 1912 16 SI MM NOT_NAMED 1912-03-22 03:00:00 NR -11.2466 83.8795 main 1950 1947 __________P___ -1 -11.2466 83.8795 7 6 99
1912081S11082 1912 16 SI MM NOT_NAMED 1912-03-22 06:00:00 NR -11.3000 84.2000 main 1947 1917 __________O___ -1 -11.3000 84.2000 7 7 100
1912081S11082 1912 16 SI MM NOT_NAMED 1912-03-22 09:00:00 NR -11.3679 84.5834 main 1917 1880 __________P___ -1 -11.3679 84.5834 7 8 100
1912081S11082 1912 16 SI MM NOT_NAMED 1912-03-22 12:00:00 NR -11.4427 84.9925 main 1880 1851 __________P___ -1 -11.4427 84.9925 7 8 101
1912081S11082 1912 16 SI MM NOT_NAMED 1912-03-22 15:00:00 NR -11.5211 85.4053 main 1851 1822 __________P___ -1 -11.5211 85.4053 7 8 101
1912081S11082 1912 16 SI MM NOT_NAMED 1912-03-22 18:00:00 NR -11.6000 85.8000 main 1822 1803 __________O___ -1 -11.6000 85.8000 7 7 102
1912081S11082 1912 16 SI MM NOT_NAMED 1912-03-22 21:00:00 NR -11.6747 86.1345 main 1803 1777 __________P___ -1 -11.6747 86.1345 7 7 103
1912081S11082 1912 16 SI MM NOT_NAMED 1912-03-23 00:00:00 NR -11.7495 86.4501 main 1768 1758 __________P___ -1 -11.7495 86.4501 7 6 104
1912081S11082 1912 16 SI MM NOT_NAMED 1912-03-23 03:00:00 NR -11.8247 86.7657 main 1750 1732 __________P___ -1 -11.8247 86.7657 7 7 103
1912081S11082 1912 16 SI MM NOT_NAMED 1912-03-23 06:00:00 NR -11.9000 87.1000 main 1732 1707 __________O___ -1 -11.9000 87.1000 7 7 102
1912081S11082 1912 16 SI MM NOT_NAMED 1912-03-23 09:00:00 NR -11.9791 87.4906 main 1707 1674 __________P___ -1 -11.9791 87.4906 7 8 101
1912081S11082 1912 16 SI MM NOT_NAMED 1912-03-23 12:00:00 NR -12.0576 87.8999 main 1682 1650 __________P___ -1 -12.0576 87.8999 7 8 101
1912081S11082 1912 16 SI MM NOT_NAMED 1912-03-23 15:00:00 NR -12.1323 88.3093 main 1650 1627 __________P___ -1 -12.1323 88.3093 7 8 100
1912081S11082 1912 16 SI MM NOT_NAMED 1912-03-23 18:00:00 NR -12.2000 88.7000 main 1627 1605 __________O___ -1 -12.2000 88.7000 7 7 100
1912081S11082 1912 16 SI MM NOT_NAMED 1912-03-23 21:00:00 NR -12.2570 89.0588 main 1605 1583 __________P___ -1 -12.2570 89.0588 7 7 99
1912081S11082 1912 16 SI MM NOT_NAMED 1912-03-24 00:00:00 NR -12.3073 89.3951 main 1583 1562 __________P___ -1 -12.3073 89.3951 7 6 99
1912081S11082 1912 16 SI MM NOT_NAMED 1912-03-24 03:00:00 NR -12.3540 89.7088 main 1570 1549 __________P___ -1 -12.3540 89.7088 7 6 99
1912081S11082 1912 16 SI WA NOT_NAMED 1912-03-24 06:00:00 NR -12.4000 90.0000 main 1549 1528 __________O___ -1 -12.4000 90.0000 7 6 100
1912081S11082 1912 16 SI WA NOT_NAMED 1912-03-24 09:00:00 NR -12.4498 90.2676 main 1528 1523 __________P___ -1 -12.4498 90.2676 7 5 101
1912081S11082 1912 16 SI WA NOT_NAMED 1912-03-24 12:00:00 NR -12.4997 90.5151 main 1523 1510 __________P___ -1 -12.4997 90.5151 7 5 102
1912081S11082 1912 16 SI WA NOT_NAMED 1912-03-24 15:00:00 NR -12.5498 90.7551 main 1503 1499 __________P___ -1 -12.5498 90.7551 7 5 102
1912081S11082 1912 16 SI WA NOT_NAMED 1912-03-24 18:00:00 NR -12.6000 91.0000 main 1499 1481 __________O___ -1 -12.6000 91.0000 7 5 101
1912081S11082 1912 16 SI WA NOT_NAMED 1912-03-24 21:00:00 NR -12.6500 91.2678 main 1481 1477 __________P___ -1 -12.6500 91.2678 7 5 101
1912081S11082 1912 16 SI WA NOT_NAMED 1912-03-25 00:00:00 NR -12.6999 91.5425 main 1477 1459 __________P___ -1 -12.6999 91.5425 7 5 101
1912081S11082 1912 16 SI WA NOT_NAMED 1912-03-25 03:00:00 NR -12.7499 91.8210 main 1459 1451 __________P___ -1 -12.7499 91.8210 7 6 100
1912081S11082 1912 16 SI WA NOT_NAMED 1912-03-25 06:00:00 NR -12.8000 92.1000 main 1451 1435 __________O___ -1 -12.8000 92.1000 7 6 100
1912081S11082 1912 16 SI WA NOT_NAMED 1912-03-25 09:00:00 NR -12.8499 92.3791 main 1435 1434 __________P___ -1 -12.8499 92.3791 7 6 100
1912081S11082 1912 16 SI WA NOT_NAMED 1912-03-25 12:00:00 NR -12.8999 92.6575 main 1428 1418 __________P___ -1 -12.8999 92.6575 7 5 101
1912081S11082 1912 16 SI WA NOT_NAMED 1912-03-25 15:00:00 NR -12.9500 92.9322 main 1418 1413 __________P___ -1 -12.9500 92.9322 7 5 101
1912081S11082 1912 16 SI WA NOT_NAMED 1912-03-25 18:00:00 NR -13.0000 93.2000 main 1413 1403 __________O___ -1 -13.0000 93.2000 7 5 102
1912081S11082 1912 16 SI WA NOT_NAMED 1912-03-25 21:00:00 NR -13.0539 93.4531 main 1405 1390 __________P___ -1 -13.0539 93.4531 7 5 102
1912081S11082 1912 16 SI WA NOT_NAMED 1912-03-26 00:00:00 NR -13.1073 93.7000 main 1390 1375 __________P___ -1 -13.1073 93.7000 7 5 102
1912081S11082 1912 16 SI WA NOT_NAMED 1912-03-26 03:00:00 NR -13.1571 93.9469 main 1383 1361 __________P___ -1 -13.1571 93.9469 7 5 101
1912081S11082 1912 16 SI WA NOT_NAMED 1912-03-26 06:00:00 NR -13.2000 94.2000 main 1361 1340 __________O___ -1 -13.2000 94.2000 7 5 98
1912081S11082 1912 16 SI WA NOT_NAMED 1912-03-26 09:00:00 NR -13.2322 94.4760 main 1340 1326 __________P___ -1 -13.2322 94.4760 7 5 96
1912081S11082 1912 16 SI WA NOT_NAMED 1912-03-26 12:00:00 NR -13.2575 94.7576 main 1327 1313 __________P___ -1 -13.2575 94.7576 7 5 95
1912081S11082 1912 16 SI WA NOT_NAMED 1912-03-26 15:00:00 NR -13.2791 95.0354 main 1313 1291 __________P___ -1 -13.2791 95.0354 7 5 95
1912081S11082 1912 16 SI WA NOT_NAMED 1912-03-26 18:00:00 NR -13.3000 95.3000 main 1291 1277 __________O___ -1 -13.3000 95.3000 7 5 95
1912081S11082 1912 16 SI WA NOT_NAMED 1912-03-26 21:00:00 NR -13.3165 95.5111 main 1277 1263 __________P___ -1 -13.3165 95.5111 7 4 95
1912081S11082 1912 16 SI WA NOT_NAMED 1912-03-27 00:00:00 NR -13.3345 95.7127 main 1263 1256 __________P___ -1 -13.3345 95.7127 7 4 96
1912081S11082 1912 16 SI WA NOT_NAMED 1912-03-27 03:00:00 NR -13.3602 95.9330 main 1258 1231 __________P___ -1 -13.3602 95.9330 7 5 98
1912081S11082 1912 16 SI WA NOT_NAMED 1912-03-27 06:00:00 NR -13.4000 96.2000 main 1231 1205 __________O___ -1 -13.4000 96.2000 7 6 99
1912081S11082 1912 16 SI WA NOT_NAMED 1912-03-27 09:00:00 NR -13.4608 96.5577 main 1203 1178 __________P___ -1 -13.4608 96.5577 7 8 100
1912081S11082 1912 16 SI WA NOT_NAMED 1912-03-27 12:00:00 NR -13.5353 96.9624 main 1170 1144 __________P___ -1 -13.5353 96.9624 7 8 101
1912081S11082 1912 16 SI WA NOT_NAMED 1912-03-27 15:00:00 NR -13.6171 97.3859 main 1144 1119 __________P___ -1 -13.6171 97.3859 7 8 101
1912081S11082 1912 16 SI WA NOT_NAMED 1912-03-27 18:00:00 NR -13.7000 97.8000 main 1119 1103 __________O___ -1 -13.7000 97.8000 7 8 102
1912081S11082 1912 16 SI WA NOT_NAMED 1912-03-27 21:00:00 NR -13.7746 98.1483 main 1103 1073 __________P___ -1 -13.7746 98.1483 7 7 103
1912081S11082 1912 16 SI WA NOT_NAMED 1912-03-28 00:00:00 NR -13.8494 98.4852 main 1073 1059 __________P___ -1 -13.8494 98.4852 7 7 103
1912081S11082 1912 16 SI WA NOT_NAMED 1912-03-28 03:00:00 NR -13.9245 98.8295 main 1059 1039 __________P___ -1 -13.9245 98.8295 7 7 102
1912081S11082 1912 16 SI WA NOT_NAMED 1912-03-28 06:00:00 NR -14.0000 99.2000 main 1039 1019 __________O___ -1 -14.0000 99.2000 7 8 100
1912081S11082 1912 16 SI WA NOT_NAMED 1912-03-28 09:00:00 NR -14.0672 99.6457 main 1021 989 __________P___ -1 -14.0672 99.6457 7 9 99
1912081S11082 1912 16 SI WA NOT_NAMED 1912-03-28 12:00:00 NR -14.1354 100.115 main 989 969 __________P___ -1 -14.1354 100.115 7 9 99
1912081S11082 1912 16 SI WA NOT_NAMED 1912-03-28 15:00:00 NR -14.2109 100.577 main 969 957 __________P___ -1 -14.2109 100.577 7 9 101
1912081S11082 1912 16 SI WA NOT_NAMED 1912-03-28 18:00:00 NR -14.3000 101.000 main 957 947 __________O___ -1 -14.3000 101.000 7 8 104
1912081S11082 1912 16 SI WA NOT_NAMED 1912-03-28 21:00:00 NR -14.4073 101.361 main 947 942 __________P___ -1 -14.4073 101.361 7 7 109
1912081S11082 1912 16 SI WA NOT_NAMED 1912-03-29 00:00:00 NR -14.5298 101.670 main 943 943 __________P___ -1 -14.5298 101.670 7 6 114
1912081S11082 1912 16 SI WA NOT_NAMED 1912-03-29 03:00:00 NR -14.6624 101.944 main 953 942 __________P___ -1 -14.6624 101.944 7 6 118
1912081S11082 1912 16 SI WA NOT_NAMED 1912-03-29 06:00:00 NR -14.8000 102.200 main 947 __________O___ -1 -14.8000 102.200 7 6 119

IBTrACS Databaseについて

本データベースは、米国NOAAが公開する1842年以降の世界の熱帯低気圧のベストトラックデータアーカイブInternational Best Track Archive for Climate Stewardship (IBTrACS)を、ウェブで閲覧しやすい形式に変換したものです。

最終更新日:2021-10-21